CYPR/YPR METAR and TAF weather

Enter ICAO airport designator
Station Type Date Time Source
CYPR METAR 2024/06/14 01:00 UTC NOAA

CYPR 140100Z AUTO 30006KT 270V340 9SM BKN096 14/07 A3003 RMK SLP173


Station Type Date Time Source
CYPR Decoded METAR 2024/06/14 01:00 UTC NOAA

Prince Rupert, B. C., Canada (CYPR) 54-18N 130-26W 34M
Jun 13, 2024 - 09:00 PM EDT / 2024.06.14 0100 UTC
Wind: from the WNW (300 degrees) at 7 MPH (6 KT) (direction variable):0
Visibility: 9 mile(s):0
Sky conditions: mostly cloudy
Temperature: 57 F (14 C)
Dew Point: 44 F (7 C)
Relative Humidity: 62%
Pressure (altimeter): 30.03 in. Hg (1016 hPa)
ob: CYPR 140100Z AUTO 30006KT 270V340 9SM BKN096 14/07 A3003 RMK SLP173
cycle: 1

Station Type Date Time Source
CYPR TAF 2024/06/14 01:42 UTC NOAA